Newburg, Iowa
Current Conditions -  °F | °C
As of 9:15 PM on Saturday 22 Nov 2014 (Local Time) from KGGI Reporting Station
Overcast Overcast  
Wind Chill: 53°   Ceiling: 4300
Heat Index: 53°   Visibility: 10mi
Dew Point: 49°   Wind: 14mph
Humidity: 88%   Direction: 170°S
Pressure: 29.69"   Gusts: NA
Location:  41.7319°N, 92.7662°W
Report Text: KGGI 230315Z AUTO 17012KT 10SM SCT034 OVC043 12/10 A2969 RMK AO2 T01160097
Loading
Personal Weather Stations






























Interactive Weather Map New forecast layout! Learn more

10-Day Weather Forecast

Advertisements
Track Severe Weather on mobile